Pinned toot

試験運用中です
不都合がありましたら
がにょ🛫( @ganyo )
までお願いいたします

RJTT 231600Z 03009KT 9999 SCT030 BKN/// 13/07 Q1022 NOSIG RMK 3SC030 A3020

RJTT 231500Z 06012KT 9999 FEW030 BKN/// 13/07 Q1022 BECMG 02008KT RMK 1CU030 A3020

RJTT 231400Z 07011KT 9999 FEW030 BKN/// 14/08 Q1023 BECMG 02008KT RMK 1SC030 A3021

RJAA 231400Z 02006KT 9999 FEW030 10/05 Q1023 NOSIG RMK 1SC030 A3023

RJTT 231300Z 09010KT 9999 FEW030 SCT/// 13/08 Q1022 BECMG 05006KT RMK 1SC030 A3021

RJAA 231300Z 25003KT 9999 FEW030 07/05 Q1024 NOSIG RMK 1CU030 A3024

RJTT 231200Z 12010KT 9999 FEW040 13/07 Q1023 NOSIG RMK 1SC040 A3022

RJAA 231200Z 25003KT CAVOK 08/05 Q1023 NOSIG RMK A3023

RJTT 231100Z 14010KT 9999 SCT035 13/07 Q1022 NOSIG RMK 4SC035 A3020

RJAA 231100Z VRB01KT CAVOK 10/05 Q1022 NOSIG RMK A3020

RJOO 231100Z 25007KT 210V280 9999 FEW030 SCT180 BKN/// 18/13 Q1019 RMK 1CU030 3AC180 A3011

RJTT 231000Z 15012KT 9999 FEW030 SCT/// 14/07 Q1022 NOSIG RMK 1CU030 A3018

RJAA 231000Z 03005KT 350V070 CAVOK 12/04 Q1022 NOSIG RMK A3018

RJOO 231000Z 24008KT 200V280 CAVOK 18/13 Q1019 RMK A3010

RJTT 230900Z 14012KT 9999 FEW030 SCT/// 15/07 Q1021 NOSIG RMK 1CU030 A3015

RJAA 230900Z 04008KT 010V070 9999 FEW030 13/05 Q1021 NOSIG RMK 1CU030 A3016

RJOO 230900Z 23012KT 200V260 CAVOK 19/13 Q1018 RMK A3008

RJTT 230800Z 09008KT 9999 FEW030 SCT/// 17/06 Q1020 NOSIG RMK 1CU030 A3013

RJAA 230800Z 03012KT CAVOK 14/04 Q1021 NOSIG RMK A3015

RJOO 230800Z 21009KT 180V260 CAVOK 20/13 Q1017 RMK A3006

Show older
hikoukidon

個人運用サーバです。 Private server.